sensor_id;sensor_type;location;lat;lon;timestamp;P1;durP1;ratioP1;P2;durP2;ratioP2
16254;SDS011;8235;52.198;9.904;2022-12-18T00:01:47;14.03;;;7.27;;
16254;SDS011;8235;52.198;9.904;2022-12-18T00:04:15;11.23;;;7.33;;
16254;SDS011;8235;52.198;9.904;2022-12-18T00:06:47;13.87;;;8.00;;
16254;SDS011;8235;52.198;9.904;2022-12-18T00:09:13;12.93;;;7.87;;
16254;SDS011;8235;52.198;9.904;2022-12-18T00:11:40;13.43;;;7.63;;
16254;SDS011;8235;52.198;9.904;2022-12-18T00:14:08;12.30;;;7.60;;
16254;SDS011;8235;52.198;9.904;2022-12-18T00:16:36;9.87;;;6.83;;
16254;SDS011;8235;52.198;9.904;2022-12-18T00:19:03;11.03;;;7.03;;
16254;SDS011;8235;52.198;9.904;2022-12-18T00:21:31;11.80;;;6.83;;
16254;SDS011;8235;52.198;9.904;2022-12-18T00:23:59;11.20;;;7.13;;
16254;SDS011;8235;52.198;9.904;2022-12-18T00:26:26;14.10;;;7.60;;
16254;SDS011;8235;52.198;9.904;2022-12-18T00:28:57;11.73;;;7.10;;
16254;SDS011;8235;52.198;9.904;2022-12-18T00:31:24;11.97;;;7.30;;
16254;SDS011;8235;52.198;9.904;2022-12-18T00:33:53;11.30;;;7.13;;
16254;SDS011;8235;52.198;9.904;2022-12-18T00:36:20;12.07;;;7.23;;
16254;SDS011;8235;52.198;9.904;2022-12-18T00:38:48;14.83;;;7.27;;
16254;SDS011;8235;52.198;9.904;2022-12-18T00:41:17;13.70;;;6.93;;
16254;SDS011;8235;52.198;9.904;2022-12-18T00:44:04;12.90;;;7.47;;
16254;SDS011;8235;52.198;9.904;2022-12-18T00:46:31;16.10;;;7.67;;
16254;SDS011;8235;52.198;9.904;2022-12-18T00:48:58;11.90;;;7.20;;
16254;SDS011;8235;52.198;9.904;2022-12-18T00:51:24;11.37;;;6.87;;
16254;SDS011;8235;52.198;9.904;2022-12-18T00:53:51;11.17;;;7.47;;
16254;SDS011;8235;52.198;9.904;2022-12-18T00:56:20;11.13;;;6.97;;
16254;SDS011;8235;52.198;9.904;2022-12-18T00:58:46;10.60;;;6.27;;
16254;SDS011;8235;52.198;9.904;2022-12-18T01:01:13;15.63;;;7.40;;
16254;SDS011;8235;52.198;9.904;2022-12-18T01:03:40;11.23;;;6.53;;
16254;SDS011;8235;52.198;9.904;2022-12-18T01:06:07;11.90;;;6.93;;
16254;SDS011;8235;52.198;9.904;2022-12-18T01:08:34;13.13;;;6.47;;
16254;SDS011;8235;52.198;9.904;2022-12-18T01:11:01;11.67;;;6.53;;
16254;SDS011;8235;52.198;9.904;2022-12-18T01:13:34;10.27;;;6.40;;
16254;SDS011;8235;52.198;9.904;2022-12-18T01:16:00;13.53;;;7.23;;
16254;SDS011;8235;52.198;9.904;2022-12-18T01:18:27;15.10;;;7.43;;
16254;SDS011;8235;52.198;9.904;2022-12-18T01:20:53;8.67;;;6.43;;
16254;SDS011;8235;52.198;9.904;2022-12-18T01:23:20;12.33;;;7.83;;
16254;SDS011;8235;52.198;9.904;2022-12-18T01:25:46;11.93;;;7.87;;
16254;SDS011;8235;52.198;9.904;2022-12-18T01:28:13;13.17;;;7.90;;
16254;SDS011;8235;52.198;9.904;2022-12-18T01:30:41;11.77;;;7.53;;
16254;SDS011;8235;52.198;9.904;2022-12-18T01:33:07;16.00;;;8.07;;
16254;SDS011;8235;52.198;9.904;2022-12-18T01:35:39;12.07;;;7.33;;
16254;SDS011;8235;52.198;9.904;2022-12-18T01:38:06;13.00;;;7.20;;
16254;SDS011;8235;52.198;9.904;2022-12-18T01:40:33;15.23;;;7.00;;
16254;SDS011;8235;52.198;9.904;2022-12-18T01:43:00;10.70;;;6.80;;
16254;SDS011;8235;52.198;9.904;2022-12-18T01:45:26;15.60;;;7.37;;
16254;SDS011;8235;52.198;9.904;2022-12-18T01:47:56;10.80;;;7.33;;
16254;SDS011;8235;52.198;9.904;2022-12-18T01:50:27;12.60;;;8.10;;
16254;SDS011;8235;52.198;9.904;2022-12-18T01:52:56;11.33;;;7.40;;
16254;SDS011;8235;52.198;9.904;2022-12-18T01:55:26;12.33;;;8.17;;
16254;SDS011;8235;52.198;9.904;2022-12-18T01:57:56;13.80;;;8.20;;
16254;SDS011;8235;52.198;9.904;2022-12-18T02:00:25;11.87;;;6.73;;
16254;SDS011;8235;52.198;9.904;2022-12-18T02:02:53;13.77;;;7.47;;
16254;SDS011;8235;52.198;9.904;2022-12-18T02:05:22;11.40;;;7.23;;
16254;SDS011;8235;52.198;9.904;2022-12-18T02:07:58;12.07;;;6.93;;
16254;SDS011;8235;52.198;9.904;2022-12-18T02:10:34;15.87;;;7.37;;
16254;SDS011;8235;52.198;9.904;2022-12-18T02:13:07;11.33;;;7.87;;
16254;SDS011;8235;52.198;9.904;2022-12-18T02:15:40;11.93;;;7.50;;
16254;SDS011;8235;52.198;9.904;2022-12-18T02:18:15;11.33;;;7.20;;
16254;SDS011;8235;52.198;9.904;2022-12-18T02:20:47;14.73;;;7.67;;
16254;SDS011;8235;52.198;9.904;2022-12-18T02:23:24;10.27;;;6.70;;
16254;SDS011;8235;52.198;9.904;2022-12-18T02:26:08;12.63;;;7.30;;
16254;SDS011;8235;52.198;9.904;2022-12-18T02:28:46;11.90;;;7.30;;
16254;SDS011;8235;52.198;9.904;2022-12-18T02:31:19;14.63;;;7.80;;
16254;SDS011;8235;52.198;9.904;2022-12-18T02:33:49;13.43;;;7.67;;
16254;SDS011;8235;52.198;9.904;2022-12-18T02:36:17;13.40;;;8.00;;
16254;SDS011;8235;52.198;9.904;2022-12-18T02:38:47;13.60;;;7.70;;
16254;SDS011;8235;52.198;9.904;2022-12-18T02:41:17;13.20;;;7.93;;
16254;SDS011;8235;52.198;9.904;2022-12-18T02:43:47;13.33;;;6.60;;
16254;SDS011;8235;52.198;9.904;2022-12-18T02:46:24;12.20;;;7.40;;
16254;SDS011;8235;52.198;9.904;2022-12-18T02:48:57;11.27;;;6.83;;
16254;SDS011;8235;52.198;9.904;2022-12-18T02:51:31;13.83;;;6.63;;
16254;SDS011;8235;52.198;9.904;2022-12-18T02:54:06;10.23;;;6.83;;
16254;SDS011;8235;52.198;9.904;2022-12-18T02:56:38;12.80;;;7.13;;
16254;SDS011;8235;52.198;9.904;2022-12-18T02:59:12;12.23;;;6.27;;
16254;SDS011;8235;52.198;9.904;2022-12-18T03:01:42;11.30;;;6.37;;
16254;SDS011;8235;52.198;9.904;2022-12-18T03:04:18;10.33;;;6.40;;
16254;SDS011;8235;52.198;9.904;2022-12-18T03:06:53;11.20;;;6.77;;
16254;SDS011;8235;52.198;9.904;2022-12-18T03:09:24;10.80;;;6.13;;
16254;SDS011;8235;52.198;9.904;2022-12-18T03:11:58;11.97;;;6.47;;
16254;SDS011;8235;52.198;9.904;2022-12-18T03:14:49;13.17;;;6.43;;
16254;SDS011;8235;52.198;9.904;2022-12-18T03:17:21;11.03;;;6.17;;
16254;SDS011;8235;52.198;9.904;2022-12-18T03:19:50;11.00;;;6.57;;
16254;SDS011;8235;52.198;9.904;2022-12-18T03:22:20;11.80;;;6.80;;
16254;SDS011;8235;52.198;9.904;2022-12-18T03:24:49;13.50;;;6.90;;
16254;SDS011;8235;52.198;9.904;2022-12-18T03:27:19;13.40;;;6.03;;
16254;SDS011;8235;52.198;9.904;2022-12-18T03:29:49;11.40;;;6.37;;
16254;SDS011;8235;52.198;9.904;2022-12-18T03:32:19;10.33;;;5.57;;
16254;SDS011;8235;52.198;9.904;2022-12-18T03:34:51;11.03;;;6.83;;
16254;SDS011;8235;52.198;9.904;2022-12-18T03:37:23;10.70;;;6.40;;
16254;SDS011;8235;52.198;9.904;2022-12-18T03:39:50;9.27;;;5.87;;
16254;SDS011;8235;52.198;9.904;2022-12-18T03:42:18;10.93;;;6.10;;
16254;SDS011;8235;52.198;9.904;2022-12-18T03:44:55;10.40;;;6.13;;
16254;SDS011;8235;52.198;9.904;2022-12-18T03:47:28;10.83;;;6.43;;
16254;SDS011;8235;52.198;9.904;2022-12-18T03:50:04;9.27;;;6.53;;
16254;SDS011;8235;52.198;9.904;2022-12-18T03:52:41;9.30;;;6.03;;
16254;SDS011;8235;52.198;9.904;2022-12-18T03:55:13;11.90;;;6.03;;
16254;SDS011;8235;52.198;9.904;2022-12-18T03:57:41;11.60;;;6.50;;
16254;SDS011;8235;52.198;9.904;2022-12-18T04:00:10;7.83;;;4.97;;
16254;SDS011;8235;52.198;9.904;2022-12-18T04:02:39;8.17;;;4.87;;
16254;SDS011;8235;52.198;9.904;2022-12-18T04:05:10;11.73;;;5.77;;
16254;SDS011;8235;52.198;9.904;2022-12-18T04:07:39;7.60;;;3.63;;
16254;SDS011;8235;52.198;9.904;2022-12-18T04:10:07;11.73;;;6.43;;
16254;SDS011;8235;52.198;9.904;2022-12-18T04:12:36;9.50;;;5.43;;
16254;SDS011;8235;52.198;9.904;2022-12-18T04:15:05;10.07;;;5.43;;
16254;SDS011;8235;52.198;9.904;2022-12-18T04:17:33;10.03;;;6.13;;
16254;SDS011;8235;52.198;9.904;2022-12-18T04:19:59;8.40;;;5.53;;
16254;SDS011;8235;52.198;9.904;2022-12-18T04:22:26;11.47;;;6.37;;
16254;SDS011;8235;52.198;9.904;2022-12-18T04:24:52;11.40;;;7.13;;
16254;SDS011;8235;52.198;9.904;2022-12-18T04:27:19;10.60;;;6.40;;
16254;SDS011;8235;52.198;9.904;2022-12-18T04:29:45;10.00;;;6.13;;
16254;SDS011;8235;52.198;9.904;2022-12-18T04:32:13;12.97;;;6.33;;
16254;SDS011;8235;52.198;9.904;2022-12-18T04:34:40;10.27;;;6.27;;
16254;SDS011;8235;52.198;9.904;2022-12-18T04:37:06;11.40;;;6.40;;
16254;SDS011;8235;52.198;9.904;2022-12-18T04:39:33;7.90;;;5.83;;
16254;SDS011;8235;52.198;9.904;2022-12-18T04:42:00;9.67;;;5.60;;
16254;SDS011;8235;52.198;9.904;2022-12-18T04:44:27;9.50;;;5.80;;
16254;SDS011;8235;52.198;9.904;2022-12-18T04:46:53;10.47;;;7.03;;
16254;SDS011;8235;52.198;9.904;2022-12-18T04:49:22;11.17;;;6.13;;
16254;SDS011;8235;52.198;9.904;2022-12-18T04:51:48;8.00;;;5.10;;
16254;SDS011;8235;52.198;9.904;2022-12-18T04:54:15;10.80;;;5.77;;
16254;SDS011;8235;52.198;9.904;2022-12-18T04:56:41;9.53;;;5.83;;
16254;SDS011;8235;52.198;9.904;2022-12-18T04:59:08;8.90;;;5.53;;
16254;SDS011;8235;52.198;9.904;2022-12-18T05:01:35;8.70;;;5.30;;
16254;SDS011;8235;52.198;9.904;2022-12-18T05:04:01;10.17;;;5.47;;
16254;SDS011;8235;52.198;9.904;2022-12-18T05:06:29;11.03;;;5.23;;
16254;SDS011;8235;52.198;9.904;2022-12-18T05:08:56;8.10;;;5.07;;
16254;SDS011;8235;52.198;9.904;2022-12-18T05:11:22;9.03;;;5.47;;
16254;SDS011;8235;52.198;9.904;2022-12-18T05:13:49;8.13;;;4.77;;
16254;SDS011;8235;52.198;9.904;2022-12-18T05:16:18;8.13;;;4.70;;
16254;SDS011;8235;52.198;9.904;2022-12-18T05:18:45;6.93;;;4.83;;
16254;SDS011;8235;52.198;9.904;2022-12-18T05:21:11;8.60;;;5.57;;
16254;SDS011;8235;52.198;9.904;2022-12-18T05:23:39;7.20;;;5.10;;
16254;SDS011;8235;52.198;9.904;2022-12-18T05:26:06;8.17;;;4.77;;
16254;SDS011;8235;52.198;9.904;2022-12-18T05:28:33;7.40;;;4.50;;
16254;SDS011;8235;52.198;9.904;2022-12-18T05:31:01;7.80;;;4.67;;
16254;SDS011;8235;52.198;9.904;2022-12-18T05:33:30;9.40;;;5.30;;
16254;SDS011;8235;52.198;9.904;2022-12-18T05:35:58;10.67;;;5.80;;
16254;SDS011;8235;52.198;9.904;2022-12-18T05:38:26;8.70;;;5.40;;
16254;SDS011;8235;52.198;9.904;2022-12-18T05:40:55;9.27;;;4.70;;
16254;SDS011;8235;52.198;9.904;2022-12-18T05:43:22;10.57;;;4.93;;
16254;SDS011;8235;52.198;9.904;2022-12-18T05:45:50;10.30;;;5.93;;
16254;SDS011;8235;52.198;9.904;2022-12-18T05:48:17;8.93;;;4.63;;
16254;SDS011;8235;52.198;9.904;2022-12-18T05:50:45;7.47;;;5.30;;
16254;SDS011;8235;52.198;9.904;2022-12-18T05:53:13;9.40;;;5.07;;
16254;SDS011;8235;52.198;9.904;2022-12-18T05:55:40;7.87;;;5.43;;
16254;SDS011;8235;52.198;9.904;2022-12-18T05:58:10;8.07;;;4.97;;
16254;SDS011;8235;52.198;9.904;2022-12-18T06:00:40;7.43;;;4.80;;
16254;SDS011;8235;52.198;9.904;2022-12-18T06:03:08;8.27;;;4.90;;
16254;SDS011;8235;52.198;9.904;2022-12-18T06:05:35;7.07;;;4.67;;
16254;SDS011;8235;52.198;9.904;2022-12-18T06:08:02;9.63;;;4.10;;
16254;SDS011;8235;52.198;9.904;2022-12-18T06:10:29;9.17;;;4.83;;
16254;SDS011;8235;52.198;9.904;2022-12-18T06:12:56;8.53;;;5.40;;
16254;SDS011;8235;52.198;9.904;2022-12-18T06:15:24;8.33;;;5.63;;
16254;SDS011;8235;52.198;9.904;2022-12-18T06:17:50;8.60;;;5.40;;
16254;SDS011;8235;52.198;9.904;2022-12-18T06:20:17;7.97;;;5.43;;
16254;SDS011;8235;52.198;9.904;2022-12-18T06:22:43;8.67;;;5.40;;
16254;SDS011;8235;52.198;9.904;2022-12-18T06:25:10;10.73;;;5.70;;
16254;SDS011;8235;52.198;9.904;2022-12-18T06:27:36;10.83;;;5.50;;
16254;SDS011;8235;52.198;9.904;2022-12-18T06:30:03;8.47;;;4.77;;
16254;SDS011;8235;52.198;9.904;2022-12-18T06:32:32;7.90;;;4.77;;
16254;SDS011;8235;52.198;9.904;2022-12-18T06:34:59;8.43;;;4.40;;
16254;SDS011;8235;52.198;9.904;2022-12-18T06:37:25;6.90;;;4.57;;
16254;SDS011;8235;52.198;9.904;2022-12-18T06:39:52;8.53;;;5.10;;
16254;SDS011;8235;52.198;9.904;2022-12-18T06:42:19;8.63;;;4.83;;
16254;SDS011;8235;52.198;9.904;2022-12-18T06:44:45;10.80;;;4.83;;
16254;SDS011;8235;52.198;9.904;2022-12-18T06:47:12;8.10;;;4.97;;
16254;SDS011;8235;52.198;9.904;2022-12-18T06:49:39;11.77;;;5.57;;
16254;SDS011;8235;52.198;9.904;2022-12-18T06:52:06;8.50;;;5.07;;
16254;SDS011;8235;52.198;9.904;2022-12-18T06:54:32;9.03;;;5.77;;
16254;SDS011;8235;52.198;9.904;2022-12-18T06:56:59;11.93;;;5.83;;
16254;SDS011;8235;52.198;9.904;2022-12-18T06:59:25;10.23;;;5.30;;
16254;SDS011;8235;52.198;9.904;2022-12-18T07:01:52;12.70;;;5.80;;
16254;SDS011;8235;52.198;9.904;2022-12-18T07:04:19;9.07;;;5.33;;
16254;SDS011;8235;52.198;9.904;2022-12-18T07:06:47;8.60;;;5.00;;
16254;SDS011;8235;52.198;9.904;2022-12-18T07:09:13;10.03;;;5.97;;
16254;SDS011;8235;52.198;9.904;2022-12-18T07:11:40;10.37;;;4.97;;
16254;SDS011;8235;52.198;9.904;2022-12-18T07:14:06;8.50;;;5.00;;
16254;SDS011;8235;52.198;9.904;2022-12-18T07:16:33;12.17;;;4.87;;
16254;SDS011;8235;52.198;9.904;2022-12-18T07:18:59;7.07;;;4.73;;
16254;SDS011;8235;52.198;9.904;2022-12-18T07:21:26;9.23;;;5.17;;
16254;SDS011;8235;52.198;9.904;2022-12-18T07:23:54;10.23;;;4.60;;
16254;SDS011;8235;52.198;9.904;2022-12-18T07:26:20;9.90;;;4.67;;
16254;SDS011;8235;52.198;9.904;2022-12-18T07:28:48;7.83;;;4.43;;
16254;SDS011;8235;52.198;9.904;2022-12-18T07:31:15;7.03;;;4.10;;
16254;SDS011;8235;52.198;9.904;2022-12-18T07:33:44;8.87;;;5.23;;
16254;SDS011;8235;52.198;9.904;2022-12-18T07:36:11;8.83;;;4.30;;
16254;SDS011;8235;52.198;9.904;2022-12-18T07:38:38;8.63;;;4.37;;
16254;SDS011;8235;52.198;9.904;2022-12-18T07:41:07;9.07;;;4.70;;
16254;SDS011;8235;52.198;9.904;2022-12-18T07:43:35;8.10;;;4.40;;
16254;SDS011;8235;52.198;9.904;2022-12-18T07:46:02;9.97;;;4.23;;
16254;SDS011;8235;52.198;9.904;2022-12-18T07:48:29;7.10;;;3.97;;
16254;SDS011;8235;52.198;9.904;2022-12-18T07:50:57;7.23;;;4.40;;
16254;SDS011;8235;52.198;9.904;2022-12-18T07:53:24;8.10;;;4.70;;
16254;SDS011;8235;52.198;9.904;2022-12-18T07:55:54;6.03;;;3.73;;
16254;SDS011;8235;52.198;9.904;2022-12-18T07:58:22;9.00;;;4.33;;
16254;SDS011;8235;52.198;9.904;2022-12-18T08:00:49;11.10;;;5.00;;
16254;SDS011;8235;52.198;9.904;2022-12-18T08:03:16;3.40;;;2.80;;
16254;SDS011;8235;52.198;9.904;2022-12-18T08:05:42;6.17;;;4.20;;
16254;SDS011;8235;52.198;9.904;2022-12-18T08:08:09;5.90;;;4.07;;
16254;SDS011;8235;52.198;9.904;2022-12-18T08:10:35;6.63;;;4.13;;
16254;SDS011;8235;52.198;9.904;2022-12-18T08:13:03;9.73;;;5.13;;
16254;SDS011;8235;52.198;9.904;2022-12-18T08:15:31;7.73;;;4.73;;
16254;SDS011;8235;52.198;9.904;2022-12-18T08:17:57;7.13;;;4.43;;
16254;SDS011;8235;52.198;9.904;2022-12-18T08:20:24;8.83;;;4.80;;
16254;SDS011;8235;52.198;9.904;2022-12-18T08:22:51;7.47;;;4.50;;
16254;SDS011;8235;52.198;9.904;2022-12-18T08:25:19;10.20;;;4.80;;
16254;SDS011;8235;52.198;9.904;2022-12-18T08:27:45;6.87;;;4.13;;
16254;SDS011;8235;52.198;9.904;2022-12-18T08:30:12;7.00;;;4.77;;
16254;SDS011;8235;52.198;9.904;2022-12-18T08:32:40;10.30;;;5.30;;
16254;SDS011;8235;52.198;9.904;2022-12-18T08:35:07;7.00;;;5.07;;
16254;SDS011;8235;52.198;9.904;2022-12-18T08:37:36;7.33;;;4.60;;
16254;SDS011;8235;52.198;9.904;2022-12-18T08:40:03;8.53;;;4.43;;
16254;SDS011;8235;52.198;9.904;2022-12-18T08:42:31;6.90;;;3.90;;
16254;SDS011;8235;52.198;9.904;2022-12-18T08:45:15;7.27;;;4.03;;
16254;SDS011;8235;52.198;9.904;2022-12-18T08:47:43;6.90;;;3.70;;
16254;SDS011;8235;52.198;9.904;2022-12-18T08:50:10;5.47;;;3.53;;
16254;SDS011;8235;52.198;9.904;2022-12-18T08:52:37;6.77;;;3.43;;
16254;SDS011;8235;52.198;9.904;2022-12-18T08:55:04;6.90;;;4.03;;
16254;SDS011;8235;52.198;9.904;2022-12-18T08:57:35;7.20;;;3.60;;
16254;SDS011;8235;52.198;9.904;2022-12-18T09:00:01;9.43;;;4.10;;
16254;SDS011;8235;52.198;9.904;2022-12-18T09:02:28;6.37;;;3.87;;
16254;SDS011;8235;52.198;9.904;2022-12-18T09:04:56;5.50;;;3.37;;
16254;SDS011;8235;52.198;9.904;2022-12-18T09:07:22;6.30;;;3.40;;
16254;SDS011;8235;52.198;9.904;2022-12-18T09:09:49;6.70;;;3.53;;
16254;SDS011;8235;52.198;9.904;2022-12-18T09:12:15;4.50;;;3.03;;
16254;SDS011;8235;52.198;9.904;2022-12-18T09:14:45;5.10;;;2.37;;
16254;SDS011;8235;52.198;9.904;2022-12-18T09:17:12;5.37;;;3.37;;
16254;SDS011;8235;52.198;9.904;2022-12-18T09:19:38;4.83;;;3.20;;
16254;SDS011;8235;52.198;9.904;2022-12-18T09:22:06;4.57;;;2.97;;
16254;SDS011;8235;52.198;9.904;2022-12-18T09:24:33;4.90;;;3.07;;
16254;SDS011;8235;52.198;9.904;2022-12-18T09:26:59;4.30;;;2.90;;
16254;SDS011;8235;52.198;9.904;2022-12-18T09:29:26;4.93;;;2.60;;
16254;SDS011;8235;52.198;9.904;2022-12-18T09:31:52;3.20;;;2.87;;
16254;SDS011;8235;52.198;9.904;2022-12-18T09:34:19;6.13;;;3.10;;
16254;SDS011;8235;52.198;9.904;2022-12-18T09:36:46;4.03;;;3.30;;
16254;SDS011;8235;52.198;9.904;2022-12-18T09:39:14;7.00;;;3.83;;
16254;SDS011;8235;52.198;9.904;2022-12-18T09:41:42;8.47;;;4.23;;
16254;SDS011;8235;52.198;9.904;2022-12-18T09:44:14;7.47;;;4.57;;
16254;SDS011;8235;52.198;9.904;2022-12-18T09:46:47;5.43;;;4.20;;
16254;SDS011;8235;52.198;9.904;2022-12-18T09:49:18;7.63;;;4.37;;
16254;SDS011;8235;52.198;9.904;2022-12-18T09:51:49;7.93;;;4.50;;
16254;SDS011;8235;52.198;9.904;2022-12-18T09:54:22;8.00;;;5.43;;
16254;SDS011;8235;52.198;9.904;2022-12-18T09:56:52;6.77;;;3.47;;
16254;SDS011;8235;52.198;9.904;2022-12-18T09:59:21;6.13;;;3.70;;
16254;SDS011;8235;52.198;9.904;2022-12-18T10:01:51;4.20;;;3.30;;
16254;SDS011;8235;52.198;9.904;2022-12-18T10:04:17;4.60;;;3.13;;
16254;SDS011;8235;52.198;9.904;2022-12-18T10:06:45;4.13;;;2.47;;
16254;SDS011;8235;52.198;9.904;2022-12-18T10:09:20;3.47;;;2.37;;
16254;SDS011;8235;52.198;9.904;2022-12-18T10:12:02;3.13;;;2.23;;
16254;SDS011;8235;52.198;9.904;2022-12-18T10:14:36;6.00;;;2.60;;
16254;SDS011;8235;52.198;9.904;2022-12-18T10:17:12;4.37;;;2.63;;
16254;SDS011;8235;52.198;9.904;2022-12-18T10:19:49;2.53;;;2.00;;
16254;SDS011;8235;52.198;9.904;2022-12-18T10:22:21;3.10;;;2.17;;
16254;SDS011;8235;52.198;9.904;2022-12-18T10:24:58;4.03;;;1.57;;
16254;SDS011;8235;52.198;9.904;2022-12-18T10:27:29;2.33;;;1.77;;
16254;SDS011;8235;52.198;9.904;2022-12-18T10:29:56;2.70;;;2.00;;
16254;SDS011;8235;52.198;9.904;2022-12-18T10:32:24;3.43;;;1.57;;
16254;SDS011;8235;52.198;9.904;2022-12-18T10:34:52;2.70;;;1.93;;
16254;SDS011;8235;52.198;9.904;2022-12-18T10:37:21;3.40;;;1.80;;
16254;SDS011;8235;52.198;9.904;2022-12-18T10:40:06;2.93;;;1.63;;
16254;SDS011;8235;52.198;9.904;2022-12-18T10:42:36;3.47;;;2.10;;
16254;SDS011;8235;52.198;9.904;2022-12-18T10:45:08;4.17;;;1.80;;
16254;SDS011;8235;52.198;9.904;2022-12-18T10:47:40;3.03;;;1.40;;
16254;SDS011;8235;52.198;9.904;2022-12-18T10:50:17;3.33;;;2.03;;
16254;SDS011;8235;52.198;9.904;2022-12-18T10:52:52;2.50;;;1.67;;
16254;SDS011;8235;52.198;9.904;2022-12-18T10:55:22;3.23;;;1.73;;
16254;SDS011;8235;52.198;9.904;2022-12-18T10:57:50;2.77;;;1.67;;
16254;SDS011;8235;52.198;9.904;2022-12-18T11:00:24;4.33;;;1.87;;
16254;SDS011;8235;52.198;9.904;2022-12-18T11:02:53;4.77;;;1.90;;
16254;SDS011;8235;52.198;9.904;2022-12-18T11:05:25;4.67;;;2.67;;
16254;SDS011;8235;52.198;9.904;2022-12-18T11:07:53;2.33;;;2.00;;
16254;SDS011;8235;52.198;9.904;2022-12-18T11:10:22;3.93;;;2.10;;
16254;SDS011;8235;52.198;9.904;2022-12-18T11:12:51;2.43;;;1.60;;
16254;SDS011;8235;52.198;9.904;2022-12-18T11:15:19;4.07;;;1.77;;
16254;SDS011;8235;52.198;9.904;2022-12-18T11:17:53;2.50;;;1.93;;
16254;SDS011;8235;52.198;9.904;2022-12-18T11:20:21;4.67;;;3.27;;
16254;SDS011;8235;52.198;9.904;2022-12-18T11:22:56;3.63;;;1.97;;
16254;SDS011;8235;52.198;9.904;2022-12-18T11:25:26;3.37;;;1.97;;
16254;SDS011;8235;52.198;9.904;2022-12-18T11:27:54;3.50;;;2.53;;
16254;SDS011;8235;52.198;9.904;2022-12-18T11:30:23;4.23;;;3.43;;
16254;SDS011;8235;52.198;9.904;2022-12-18T11:32:52;3.37;;;2.10;;
16254;SDS011;8235;52.198;9.904;2022-12-18T11:35:30;3.00;;;2.23;;
16254;SDS011;8235;52.198;9.904;2022-12-18T11:38:06;4.33;;;2.57;;
16254;SDS011;8235;52.198;9.904;2022-12-18T11:40:43;2.67;;;1.93;;
16254;SDS011;8235;52.198;9.904;2022-12-18T11:43:14;4.60;;;1.90;;
16254;SDS011;8235;52.198;9.904;2022-12-18T11:45:47;3.17;;;1.83;;
16254;SDS011;8235;52.198;9.904;2022-12-18T11:48:18;4.17;;;2.17;;
16254;SDS011;8235;52.198;9.904;2022-12-18T11:50:49;5.30;;;2.77;;
16254;SDS011;8235;52.198;9.904;2022-12-18T11:53:17;2.60;;;2.40;;
16254;SDS011;8235;52.198;9.904;2022-12-18T11:56:04;2.40;;;2.03;;
16254;SDS011;8235;52.198;9.904;2022-12-18T11:58:45;3.40;;;2.37;;
16254;SDS011;8235;52.198;9.904;2022-12-18T12:01:24;3.30;;;1.87;;
16254;SDS011;8235;52.198;9.904;2022-12-18T12:04:15;3.57;;;2.20;;
16254;SDS011;8235;52.198;9.904;2022-12-18T12:07:02;5.00;;;2.70;;
16254;SDS011;8235;52.198;9.904;2022-12-18T12:09:52;3.83;;;2.23;;
16254;SDS011;8235;52.198;9.904;2022-12-18T12:12:30;5.20;;;2.87;;
16254;SDS011;8235;52.198;9.904;2022-12-18T12:15:13;4.67;;;2.37;;
16254;SDS011;8235;52.198;9.904;2022-12-18T12:17:55;3.50;;;2.10;;
16254;SDS011;8235;52.198;9.904;2022-12-18T12:20:31;3.30;;;2.50;;
16254;SDS011;8235;52.198;9.904;2022-12-18T12:23:13;3.53;;;2.13;;
16254;SDS011;8235;52.198;9.904;2022-12-18T12:25:49;3.03;;;2.00;;
16254;SDS011;8235;52.198;9.904;2022-12-18T12:28:36;3.07;;;1.67;;
16254;SDS011;8235;52.198;9.904;2022-12-18T12:31:24;2.20;;;1.57;;
16254;SDS011;8235;52.198;9.904;2022-12-18T12:34:04;4.13;;;2.00;;
16254;SDS011;8235;52.198;9.904;2022-12-18T12:36:41;3.53;;;2.30;;
16254;SDS011;8235;52.198;9.904;2022-12-18T12:39:21;3.47;;;1.83;;
16254;SDS011;8235;52.198;9.904;2022-12-18T12:41:56;4.03;;;2.60;;
16254;SDS011;8235;52.198;9.904;2022-12-18T12:44:42;4.80;;;2.77;;
16254;SDS011;8235;52.198;9.904;2022-12-18T12:47:14;3.57;;;2.50;;
16254;SDS011;8235;52.198;9.904;2022-12-18T12:49:57;4.07;;;2.43;;
16254;SDS011;8235;52.198;9.904;2022-12-18T12:52:30;6.00;;;2.87;;
16254;SDS011;8235;52.198;9.904;2022-12-18T12:55:02;3.57;;;2.53;;
16254;SDS011;8235;52.198;9.904;2022-12-18T12:57:33;4.67;;;2.90;;
16254;SDS011;8235;52.198;9.904;2022-12-18T13:00:10;4.87;;;3.53;;
16254;SDS011;8235;52.198;9.904;2022-12-18T13:02:44;5.43;;;3.63;;
16254;SDS011;8235;52.198;9.904;2022-12-18T13:05:19;6.47;;;4.53;;
16254;SDS011;8235;52.198;9.904;2022-12-18T13:07:52;7.53;;;4.53;;
16254;SDS011;8235;52.198;9.904;2022-12-18T13:10:23;7.20;;;5.40;;
16254;SDS011;8235;52.198;9.904;2022-12-18T13:12:55;7.83;;;5.30;;
16254;SDS011;8235;52.198;9.904;2022-12-18T13:15:24;10.33;;;6.63;;
16254;SDS011;8235;52.198;9.904;2022-12-18T13:18:04;8.73;;;6.93;;
16254;SDS011;8235;52.198;9.904;2022-12-18T13:20:42;10.47;;;7.30;;
16254;SDS011;8235;52.198;9.904;2022-12-18T13:23:27;13.37;;;7.50;;
16254;SDS011;8235;52.198;9.904;2022-12-18T13:25:57;10.13;;;7.13;;
16254;SDS011;8235;52.198;9.904;2022-12-18T13:28:48;8.63;;;6.80;;
16254;SDS011;8235;52.198;9.904;2022-12-18T13:34:35;9.87;;;6.90;;
16254;SDS011;8235;52.198;9.904;2022-12-18T13:43:32;9.30;;;6.43;;
16254;SDS011;8235;52.198;9.904;2022-12-18T13:46:06;11.40;;;6.93;;
16254;SDS011;8235;52.198;9.904;2022-12-18T13:48:49;10.30;;;7.57;;
16254;SDS011;8235;52.198;9.904;2022-12-18T13:51:19;12.93;;;7.63;;
16254;SDS011;8235;52.198;9.904;2022-12-18T13:53:48;13.73;;;8.43;;
16254;SDS011;8235;52.198;9.904;2022-12-18T13:56:17;18.77;;;9.20;;
16254;SDS011;8235;52.198;9.904;2022-12-18T14:01:47;12.40;;;9.20;;
16254;SDS011;8235;52.198;9.904;2022-12-18T14:04:20;13.93;;;8.87;;
16254;SDS011;8235;52.198;9.904;2022-12-18T14:06:55;15.03;;;9.33;;
16254;SDS011;8235;52.198;9.904;2022-12-18T14:09:30;14.70;;;9.93;;
16254;SDS011;8235;52.198;9.904;2022-12-18T14:11:57;14.33;;;9.70;;
16254;SDS011;8235;52.198;9.904;2022-12-18T14:14:45;14.70;;;9.10;;
16254;SDS011;8235;52.198;9.904;2022-12-18T14:17:18;19.53;;;10.10;;
16254;SDS011;8235;52.198;9.904;2022-12-18T14:19:48;16.03;;;10.27;;
16254;SDS011;8235;52.198;9.904;2022-12-18T14:22:19;15.67;;;9.63;;
16254;SDS011;8235;52.198;9.904;2022-12-18T14:24:47;18.87;;;10.20;;
16254;SDS011;8235;52.198;9.904;2022-12-18T14:27:41;16.77;;;9.77;;
16254;SDS011;8235;52.198;9.904;2022-12-18T14:30:22;17.17;;;9.67;;
16254;SDS011;8235;52.198;9.904;2022-12-18T14:32:59;13.40;;;9.70;;
16254;SDS011;8235;52.198;9.904;2022-12-18T14:35:26;16.03;;;10.80;;
16254;SDS011;8235;52.198;9.904;2022-12-18T14:40:46;16.27;;;9.83;;
16254;SDS011;8235;52.198;9.904;2022-12-18T14:43:15;16.53;;;11.17;;
16254;SDS011;8235;52.198;9.904;2022-12-18T14:45:45;17.63;;;10.70;;
16254;SDS011;8235;52.198;9.904;2022-12-18T14:48:16;28.63;;;15.20;;
16254;SDS011;8235;52.198;9.904;2022-12-18T14:50:55;22.10;;;13.73;;
16254;SDS011;8235;52.198;9.904;2022-12-18T14:53:29;18.17;;;10.43;;
16254;SDS011;8235;52.198;9.904;2022-12-18T14:56:00;21.03;;;14.77;;
16254;SDS011;8235;52.198;9.904;2022-12-18T14:58:48;23.03;;;14.93;;
16254;SDS011;8235;52.198;9.904;2022-12-18T15:01:23;37.57;;;17.30;;
16254;SDS011;8235;52.198;9.904;2022-12-18T15:03:55;29.37;;;14.90;;
16254;SDS011;8235;52.198;9.904;2022-12-18T15:06:29;27.87;;;14.60;;
16254;SDS011;8235;52.198;9.904;2022-12-18T15:09:03;17.70;;;10.93;;
16254;SDS011;8235;52.198;9.904;2022-12-18T15:11:43;16.87;;;10.47;;
16254;SDS011;8235;52.198;9.904;2022-12-18T15:14:24;18.50;;;9.27;;
16254;SDS011;8235;52.198;9.904;2022-12-18T15:17:04;14.87;;;9.57;;
16254;SDS011;8235;52.198;9.904;2022-12-18T15:19:41;11.60;;;8.53;;
16254;SDS011;8235;52.198;9.904;2022-12-18T15:25:02;14.70;;;9.67;;
16254;SDS011;8235;52.198;9.904;2022-12-18T15:27:47;12.90;;;9.27;;
16254;SDS011;8235;52.198;9.904;2022-12-18T15:35:55;13.27;;;8.67;;
16254;SDS011;8235;52.198;9.904;2022-12-18T15:38:22;11.40;;;7.80;;
16254;SDS011;8235;52.198;9.904;2022-12-18T15:40:52;13.27;;;8.67;;